createdAt,value
2018-02-03T00:01:05.346Z,17.10
2018-02-03T00:03:32.942Z,22.07
2018-02-03T00:06:00.546Z,19.63
2018-02-03T00:08:28.258Z,23.13
2018-02-03T00:10:55.755Z,21.13
2018-02-03T00:13:23.264Z,19.87
2018-02-03T00:15:50.754Z,19.30
2018-02-03T00:18:18.209Z,18.23
2018-02-03T00:20:46.806Z,19.23
2018-02-03T00:23:14.270Z,22.47
2018-02-03T00:25:41.778Z,18.47
2018-02-03T00:28:09.237Z,21.57
2018-02-03T00:30:36.727Z,18.93
2018-02-03T00:33:04.203Z,19.37
2018-02-03T00:35:31.714Z,17.47
2018-02-03T00:37:59.200Z,24.90
2018-02-03T00:40:27.372Z,26.80
2018-02-03T00:42:54.913Z,22.17
2018-02-03T00:45:22.400Z,26.73
2018-02-03T00:47:49.877Z,21.97
2018-02-03T00:50:17.401Z,23.67
2018-02-03T00:52:46.114Z,27.13
2018-02-03T00:55:13.708Z,26.17
2018-02-03T00:57:41.256Z,23.93
2018-02-03T01:00:08.786Z,27.43
2018-02-03T01:02:38.616Z,25.80
2018-02-03T01:05:06.232Z,24.10
2018-02-03T01:07:33.836Z,26.87
2018-02-03T01:10:01.829Z,22.20
2018-02-03T01:12:30.177Z,20.20
2018-02-03T01:14:58.471Z,25.10
2018-02-03T01:17:26.002Z,21.50
2018-02-03T01:19:53.546Z,26.10
2018-02-03T01:22:21.103Z,25.30
2018-02-03T01:24:48.667Z,27.43
2018-02-03T01:27:16.177Z,34.00
2018-02-03T01:29:43.702Z,23.63
2018-02-03T01:32:12.214Z,25.13
2018-02-03T01:34:39.720Z,26.07
2018-02-03T01:37:07.969Z,22.60
2018-02-03T01:39:35.475Z,27.03
2018-02-03T01:42:02.975Z,25.53
2018-02-03T01:44:30.495Z,29.27
2018-02-03T01:46:57.989Z,26.93
2018-02-03T01:49:25.494Z,23.43
2018-02-03T01:51:52.957Z,25.60
2018-02-03T01:54:20.780Z,30.77
2018-02-03T01:56:49.366Z,23.83
2018-02-03T01:59:16.923Z,25.40
2018-02-03T02:01:44.467Z,22.83
2018-02-03T02:04:12.080Z,23.83
2018-02-03T02:06:39.655Z,24.13
2018-02-03T02:09:07.172Z,24.73
2018-02-03T02:11:34.730Z,28.00
2018-02-03T02:14:02.277Z,26.07
2018-02-03T02:16:29.818Z,27.83
2018-02-03T02:18:57.357Z,27.30
2018-02-03T02:21:24.868Z,30.00
2018-02-03T02:23:53.083Z,27.07
2018-02-03T02:26:20.937Z,32.87
2018-02-03T02:28:48.494Z,28.50
2018-02-03T02:31:16.059Z,28.67
2018-02-03T02:33:43.638Z,30.53
2018-02-03T02:36:11.174Z,24.27
2018-02-03T02:38:39.553Z,27.17
2018-02-03T02:41:07.044Z,31.60
2018-02-03T02:43:34.596Z,28.37
2018-02-03T02:46:02.110Z,30.80
2018-02-03T02:48:30.364Z,30.00
2018-02-03T02:50:57.846Z,24.83
2018-02-03T02:53:25.328Z,28.50
2018-02-03T02:55:52.859Z,27.00
2018-02-03T02:58:20.320Z,23.93
2018-02-03T03:00:47.805Z,31.10
2018-02-03T03:03:15.292Z,24.10
2018-02-03T03:05:42.789Z,24.13
2018-02-03T03:08:10.426Z,24.63
2018-02-03T03:10:37.913Z,23.93
2018-02-03T03:13:05.420Z,25.30
2018-02-03T03:15:32.934Z,22.90
2018-02-03T03:18:00.410Z,27.03
2018-02-03T03:20:27.943Z,26.50
2018-02-03T03:22:55.455Z,25.80
2018-02-03T03:25:22.927Z,31.57
2018-02-03T03:27:50.388Z,31.60
2018-02-03T03:30:17.867Z,27.60
2018-02-03T03:32:45.370Z,25.63
2018-02-03T03:35:12.865Z,25.73
2018-02-03T03:37:40.794Z,22.60
2018-02-03T03:40:08.288Z,23.20
2018-02-03T03:42:35.753Z,23.30
2018-02-03T03:45:04.005Z,25.27
2018-02-03T03:47:31.488Z,24.93
2018-02-03T03:49:59.731Z,28.37
2018-02-03T03:52:27.229Z,29.87
2018-02-03T03:54:54.697Z,31.97
2018-02-03T03:57:22.188Z,25.27
2018-02-03T03:59:49.684Z,25.07
2018-02-03T04:02:17.150Z,28.80
2018-02-03T04:04:45.403Z,27.73
2018-02-03T04:07:12.895Z,24.10
2018-02-03T04:09:41.151Z,24.57
2018-02-03T04:12:09.395Z,24.50
2018-02-03T04:14:36.906Z,24.53
2018-02-03T04:17:04.377Z,23.30
2018-02-03T04:19:31.840Z,27.60
2018-02-03T04:21:59.348Z,24.93
2018-02-03T04:24:29.416Z,28.83
2018-02-03T04:26:56.935Z,32.50
2018-02-03T04:29:24.406Z,24.13
2018-02-03T04:31:51.897Z,24.50
2018-02-03T04:34:19.442Z,28.27
2018-02-03T04:36:46.942Z,24.17
2018-02-03T04:39:14.442Z,26.20
2018-02-03T04:41:41.913Z,21.93
2018-02-03T04:44:09.444Z,23.73
2018-02-03T04:46:36.931Z,14.50
2018-02-03T04:49:04.434Z,19.40
2018-02-03T04:51:31.931Z,21.33
2018-02-03T04:53:59.421Z,21.30
2018-02-03T04:56:26.936Z,20.70
2018-02-03T04:58:55.243Z,18.83
2018-02-03T05:01:22.866Z,25.30
2018-02-03T05:03:51.126Z,25.17
2018-02-03T05:06:18.631Z,30.70
2018-02-03T05:08:46.140Z,36.00
2018-02-03T05:11:13.694Z,52.70
2018-02-03T05:13:41.285Z,52.23
2018-02-03T05:16:08.799Z,40.67
2018-02-03T05:18:36.356Z,33.67
2018-02-03T05:21:03.906Z,32.47
2018-02-03T05:23:31.431Z,29.97
2018-02-03T05:25:59.088Z,28.97
2018-02-03T05:28:26.627Z,42.43
2018-02-03T05:30:54.347Z,35.27
2018-02-03T05:33:21.851Z,33.07
2018-02-03T05:35:50.150Z,28.53
2018-02-03T05:38:17.665Z,20.53
2018-02-03T05:40:45.136Z,20.93
2018-02-03T05:43:13.415Z,24.53
2018-02-03T05:45:40.948Z,21.57
2018-02-03T05:48:08.560Z,21.27
2018-02-03T05:50:36.275Z,14.97
2018-02-03T05:53:03.758Z,18.93
2018-02-03T05:55:31.222Z,15.33
2018-02-03T05:57:58.704Z,17.20
2018-02-03T06:00:26.256Z,17.17
2018-02-03T06:02:54.174Z,14.13
2018-02-03T06:05:22.555Z,19.57
2018-02-03T06:07:50.784Z,18.20
2018-02-03T06:10:19.607Z,18.10
2018-02-03T06:12:47.126Z,16.50
2018-02-03T06:15:14.605Z,17.23
2018-02-03T06:17:42.384Z,21.60
2018-02-03T06:20:09.905Z,20.83
2018-02-03T06:22:37.366Z,17.73
2018-02-03T06:25:04.864Z,20.30
2018-02-03T06:27:32.384Z,13.60
2018-02-03T06:29:59.889Z,16.37
2018-02-03T06:32:27.371Z,18.90
2018-02-03T06:34:55.653Z,18.00
2018-02-03T06:37:23.890Z,17.80
2018-02-03T06:39:51.419Z,18.53
2018-02-03T06:42:18.905Z,22.20
2018-02-03T06:44:46.467Z,25.27
2018-02-03T06:47:15.308Z,24.00
2018-02-03T06:49:42.815Z,26.43
2018-02-03T06:52:10.291Z,24.10
2018-02-03T06:54:38.469Z,22.00
2018-02-03T06:57:06.765Z,28.43
2018-02-03T06:59:34.995Z,21.50
2018-02-03T07:02:03.452Z,16.83
2018-02-03T07:04:31.000Z,27.10
2018-02-03T07:06:58.484Z,19.10
2018-02-03T07:09:25.989Z,21.23
2018-02-03T07:11:53.489Z,18.17
2018-02-03T07:14:21.732Z,24.97
2018-02-03T07:16:50.047Z,19.50
2018-02-03T07:19:17.578Z,24.93
2018-02-03T07:21:45.060Z,19.90
2018-02-03T07:24:13.454Z,19.10
2018-02-03T07:26:40.952Z,22.37
2018-02-03T07:29:09.245Z,29.43
2018-02-03T07:31:36.726Z,21.00
2018-02-03T07:34:04.235Z,28.10
2018-02-03T07:36:31.726Z,20.57
2018-02-03T07:38:59.565Z,20.40
2018-02-03T07:41:27.068Z,24.10
2018-02-03T07:43:54.563Z,19.97
2018-02-03T07:46:22.103Z,20.77
2018-02-03T07:48:49.590Z,23.30
2018-02-03T07:51:17.090Z,22.20
2018-02-03T07:53:44.567Z,18.90
2018-02-03T07:56:12.046Z,19.37
2018-02-03T07:58:39.512Z,25.87
2018-02-03T08:01:07.783Z,24.40
2018-02-03T08:03:35.274Z,20.67
2018-02-03T08:06:02.802Z,22.83
2018-02-03T08:08:30.302Z,24.50
2018-02-03T08:10:58.722Z,33.50
2018-02-03T08:13:26.700Z,22.10
2018-02-03T08:15:54.200Z,45.10
2018-02-03T08:18:21.773Z,45.53
2018-02-03T08:20:50.101Z,106.10
2018-02-03T08:23:17.632Z,143.40
2018-02-03T08:25:45.140Z,246.43
2018-02-03T08:28:13.423Z,116.20
2018-02-03T08:30:40.885Z,134.60
2018-02-03T08:33:08.372Z,41.73
2018-02-03T08:35:35.847Z,27.77
2018-02-03T08:38:03.391Z,24.13
2018-02-03T08:40:31.690Z,20.67
2018-02-03T08:42:59.167Z,20.13
2018-02-03T08:45:27.419Z,29.60
2018-02-03T08:47:54.931Z,27.70
2018-02-03T08:50:22.431Z,25.50
2018-02-03T08:52:50.716Z,32.13
2018-02-03T08:55:18.237Z,21.83
2018-02-03T08:57:45.731Z,26.30
2018-02-03T09:00:13.206Z,19.43
2018-02-03T09:02:41.452Z,21.80
2018-02-03T09:05:08.931Z,24.30
2018-02-03T09:07:36.402Z,22.17
2018-02-03T09:10:04.670Z,26.33
2018-02-03T09:12:32.922Z,20.57
2018-02-03T09:15:00.428Z,22.03
2018-02-03T09:17:27.952Z,19.40
2018-02-03T09:19:55.426Z,20.07
2018-02-03T09:22:22.923Z,21.53
2018-02-03T09:24:50.408Z,22.20
2018-02-03T09:27:17.881Z,18.53
2018-02-03T09:29:45.394Z,17.63
2018-02-03T09:32:12.907Z,14.70
2018-02-03T09:34:40.384Z,18.17
2018-02-03T09:37:07.879Z,22.27
2018-02-03T09:39:35.385Z,21.83
2018-02-03T09:42:03.616Z,21.83
2018-02-03T09:44:31.109Z,19.40
2018-02-03T09:46:58.646Z,17.97
2018-02-03T09:49:26.170Z,23.07
2018-02-03T09:51:53.667Z,19.47
2018-02-03T09:54:21.143Z,15.50
2018-02-03T09:56:48.646Z,20.30
2018-02-03T09:59:16.108Z,15.10
2018-02-03T10:01:43.625Z,15.83
2018-02-03T10:04:11.890Z,18.13
2018-02-03T10:06:40.164Z,15.90
2018-02-03T10:09:07.627Z,14.57
2018-02-03T10:11:35.896Z,14.97
2018-02-03T10:14:03.987Z,13.53
2018-02-03T10:16:32.228Z,14.60
2018-02-03T10:18:59.786Z,14.40
2018-02-03T10:21:27.260Z,13.63
2018-02-03T10:23:54.768Z,19.77
2018-02-03T10:26:22.324Z,12.10
2018-02-03T10:28:49.881Z,12.20
2018-02-03T10:31:17.374Z,12.63
2018-02-03T10:33:44.905Z,13.03
2018-02-03T10:36:12.366Z,11.37
2018-02-03T10:38:39.854Z,15.40
2018-02-03T10:41:08.814Z,17.60
2018-02-03T10:43:36.297Z,14.87
2018-02-03T10:46:03.783Z,9.93
2018-02-03T10:48:32.032Z,13.50
2018-02-03T10:50:59.529Z,17.50
2018-02-03T10:53:26.999Z,13.23
2018-02-03T10:55:54.473Z,13.47
2018-02-03T10:58:22.722Z,14.80
2018-02-03T11:00:50.206Z,14.10
2018-02-03T11:03:17.701Z,12.60
2018-02-03T11:05:48.651Z,13.80
2018-02-03T11:08:16.226Z,11.80
2018-02-03T11:10:43.782Z,14.70
2018-02-03T11:13:12.055Z,9.63
2018-02-03T11:15:40.577Z,9.40
2018-02-03T11:18:08.042Z,6.97
2018-02-03T11:20:35.502Z,11.50
2018-02-03T11:23:03.000Z,7.47
2018-02-03T11:25:31.285Z,8.10
2018-02-03T11:27:59.548Z,7.27
2018-02-03T11:30:27.053Z,12.47
2018-02-03T11:32:54.543Z,7.17
2018-02-03T11:35:22.819Z,6.83
2018-02-03T11:37:50.299Z,9.50
2018-02-03T11:40:18.543Z,7.67
2018-02-03T11:42:45.992Z,9.70
2018-02-03T11:45:13.490Z,4.53
2018-02-03T11:47:41.785Z,5.27
2018-02-03T11:50:09.465Z,8.00
2018-02-03T11:52:36.965Z,10.73
2018-02-03T11:55:04.465Z,6.30
2018-02-03T11:57:31.938Z,9.73
2018-02-03T11:59:59.434Z,8.97
2018-02-03T12:02:26.928Z,6.60
2018-02-03T12:04:55.178Z,7.63
2018-02-03T12:07:22.673Z,6.80
2018-02-03T12:09:50.249Z,6.43
2018-02-03T12:12:18.518Z,7.60
2018-02-03T12:14:46.006Z,9.63
2018-02-03T12:17:13.496Z,9.40
2018-02-03T12:19:41.001Z,9.20
2018-02-03T12:22:08.462Z,7.37
2018-02-03T12:24:35.956Z,5.10
2018-02-03T12:27:03.485Z,11.03
2018-02-03T12:29:30.945Z,6.73
2018-02-03T12:31:58.450Z,7.13
2018-02-03T12:34:26.715Z,7.17
2018-02-03T12:36:54.984Z,7.47
2018-02-03T12:39:22.544Z,6.60
2018-02-03T12:41:50.019Z,6.87
2018-02-03T12:44:17.509Z,7.07
2018-02-03T12:46:45.015Z,8.97
2018-02-03T12:49:12.499Z,12.93
2018-02-03T12:51:40.728Z,8.37
2018-02-03T12:54:08.581Z,8.83
2018-02-03T12:56:36.046Z,6.77
2018-02-03T12:59:03.540Z,8.87
2018-02-03T13:01:31.087Z,9.53
2018-02-03T13:03:58.586Z,19.30
2018-02-03T13:06:26.099Z,8.00
2018-02-03T13:08:53.609Z,9.80
2018-02-03T13:11:21.123Z,7.23
2018-02-03T13:13:48.602Z,11.60
2018-02-03T13:16:16.956Z,7.10
2018-02-03T13:18:44.449Z,9.47
2018-02-03T13:21:12.742Z,7.67
2018-02-03T13:23:40.243Z,8.40
2018-02-03T13:26:07.920Z,7.20
2018-02-03T13:28:35.452Z,10.60
2018-02-03T13:31:02.952Z,8.03
2018-02-03T13:33:30.436Z,6.77
2018-02-03T13:35:57.896Z,7.77
2018-02-03T13:38:25.412Z,5.53
2018-02-03T13:40:53.655Z,9.43
2018-02-03T13:43:21.133Z,19.93
2018-02-03T13:45:48.637Z,3.37
2018-02-03T13:48:16.110Z,4.90
2018-02-03T13:50:43.564Z,5.93
2018-02-03T13:53:11.043Z,4.20
2018-02-03T13:55:38.533Z,3.57
2018-02-03T13:58:06.812Z,4.93
2018-02-03T14:00:35.095Z,6.67
2018-02-03T14:03:03.361Z,5.50
2018-02-03T14:05:30.839Z,21.10
2018-02-03T14:07:58.324Z,17.20
2018-02-03T14:10:25.842Z,7.07
2018-02-03T14:12:54.114Z,5.87
2018-02-03T14:15:21.608Z,3.00
2018-02-03T14:17:49.092Z,5.57
2018-02-03T14:20:16.626Z,5.27
2018-02-03T14:22:44.112Z,2.10
2018-02-03T14:25:12.513Z,2.20
2018-02-03T14:27:40.004Z,3.63
2018-02-03T14:30:07.475Z,3.37
2018-02-03T14:32:34.951Z,5.13
2018-02-03T14:35:02.465Z,6.20
2018-02-03T14:37:29.944Z,6.43
2018-02-03T14:39:57.455Z,6.57
2018-02-03T14:42:25.432Z,29.83
2018-02-03T14:44:53.676Z,21.60
2018-02-03T14:47:21.155Z,30.27
2018-02-03T14:49:48.637Z,8.90
2018-02-03T14:52:16.140Z,7.87
2018-02-03T14:54:43.638Z,8.90
2018-02-03T14:57:11.130Z,9.23
2018-02-03T14:59:38.630Z,7.33
2018-02-03T15:02:06.109Z,9.40
2018-02-03T15:04:34.378Z,9.03
2018-02-03T15:07:02.606Z,5.60
2018-02-03T15:09:30.067Z,7.03
2018-02-03T15:11:57.561Z,7.63
2018-02-03T15:14:25.851Z,9.47
2018-02-03T15:16:54.083Z,10.50
2018-02-03T15:19:21.591Z,13.50
2018-02-03T15:21:49.059Z,5.80
2018-02-03T15:24:16.549Z,9.43
2018-02-03T15:26:44.249Z,13.47
2018-02-03T15:29:11.736Z,8.60
2018-02-03T15:31:39.215Z,12.97
2018-02-03T15:34:08.767Z,12.13
2018-02-03T15:36:37.049Z,16.23
2018-02-03T15:39:04.722Z,11.40
2018-02-03T15:41:32.992Z,11.17
2018-02-03T15:44:00.463Z,12.47
2018-02-03T15:46:27.957Z,14.23
2018-02-03T15:48:56.200Z,10.53
2018-02-03T15:51:23.681Z,12.97
2018-02-03T15:53:51.180Z,14.70
2018-02-03T15:56:18.679Z,7.20
2018-02-03T15:58:46.123Z,7.57
2018-02-03T16:01:13.766Z,13.10
2018-02-03T16:03:42.835Z,11.77
2018-02-03T16:06:11.060Z,9.80
2018-02-03T16:08:42.207Z,11.53
2018-02-03T16:11:11.967Z,16.90
2018-02-03T16:13:43.140Z,9.80
2018-02-03T16:16:11.188Z,9.97
2018-02-03T16:18:38.781Z,8.30
2018-02-03T16:21:06.609Z,7.47
2018-02-03T16:23:34.163Z,14.87
2018-02-03T16:26:02.774Z,11.40
2018-02-03T16:28:30.382Z,12.57
2018-02-03T16:30:57.974Z,22.03
2018-02-03T16:33:25.531Z,21.00
2018-02-03T16:35:53.463Z,68.80
2018-02-03T16:38:28.969Z,25.63
2018-02-03T16:40:56.592Z,22.50
2018-02-03T16:43:24.090Z,18.93
2018-02-03T16:45:51.607Z,10.73
2018-02-03T16:48:19.163Z,9.77
2018-02-03T16:50:46.658Z,15.90
2018-02-03T16:53:14.214Z,12.43
2018-02-03T16:55:41.696Z,18.53
2018-02-03T16:58:10.594Z,11.47
2018-02-03T17:00:38.144Z,17.53
2018-02-03T17:03:05.648Z,21.20
2018-02-03T17:05:33.158Z,42.63
2018-02-03T17:08:01.434Z,61.53
2018-02-03T17:10:29.672Z,69.50
2018-02-03T17:12:57.179Z,76.60
2018-02-03T17:15:24.675Z,74.87
2018-02-03T17:17:52.235Z,73.57
2018-02-03T17:20:19.707Z,37.23
2018-02-03T17:22:47.198Z,16.57
2018-02-03T17:25:15.499Z,20.07
2018-02-03T17:27:43.046Z,14.73
2018-02-03T17:30:11.300Z,16.60
2018-02-03T17:32:39.632Z,10.73
2018-02-03T17:35:07.878Z,13.47
2018-02-03T17:37:41.104Z,23.23
2018-02-03T17:40:08.625Z,19.30
2018-02-03T17:42:36.154Z,23.23
2018-02-03T17:45:09.265Z,16.10
2018-02-03T17:47:36.784Z,39.40
2018-02-03T17:50:05.084Z,54.23
2018-02-03T17:52:33.336Z,49.73
2018-02-03T17:55:00.837Z,29.40
2018-02-03T17:57:34.062Z,25.10
2018-02-03T18:00:01.548Z,33.10
2018-02-03T18:02:29.057Z,78.97
2018-02-03T18:04:56.547Z,35.40
2018-02-03T18:07:24.051Z,25.70
2018-02-03T18:09:51.543Z,26.97
2018-02-03T18:12:19.071Z,32.93
2018-02-03T18:14:46.580Z,29.70
2018-02-03T18:17:14.101Z,25.73
2018-02-03T18:19:41.594Z,23.63
2018-02-03T18:22:09.115Z,18.97
2018-02-03T18:24:37.426Z,17.50
2018-02-03T18:27:05.494Z,21.17
2018-02-03T18:29:33.026Z,22.60
2018-02-03T18:32:00.527Z,17.93
2018-02-03T18:34:28.810Z,20.13
2018-02-03T18:36:56.338Z,17.70
2018-02-03T18:39:23.877Z,18.50
2018-02-03T18:41:51.361Z,15.13
2018-02-03T18:44:18.900Z,12.80
2018-02-03T18:46:46.401Z,11.90
2018-02-03T18:49:13.930Z,17.60
2018-02-03T18:51:41.490Z,22.87
2018-02-03T18:54:09.776Z,16.00
2018-02-03T18:56:37.278Z,18.27
2018-02-03T18:59:05.518Z,20.77
2018-02-03T19:01:33.027Z,27.77
2018-02-03T19:04:00.561Z,27.13
2018-02-03T19:06:28.073Z,20.57
2018-02-03T19:08:56.328Z,22.43
2018-02-03T19:11:23.825Z,19.60
2018-02-03T19:13:51.336Z,22.03
2018-02-03T19:16:18.826Z,25.80
2018-02-03T19:18:46.377Z,19.53
2018-02-03T19:21:14.648Z,22.47
2018-02-03T19:23:42.141Z,23.10
2018-02-03T19:26:09.625Z,19.80
2018-02-03T19:28:37.930Z,20.13
2018-02-03T19:31:06.406Z,28.43
2018-02-03T19:33:34.684Z,23.13
2018-02-03T19:36:02.183Z,27.13
2018-02-03T19:38:30.520Z,22.50
2018-02-03T19:40:57.994Z,24.03
2018-02-03T19:43:25.529Z,24.70
2018-02-03T19:45:53.022Z,20.10
2018-02-03T19:48:20.499Z,29.67
2018-02-03T19:50:48.007Z,30.37
2018-02-03T19:53:15.490Z,27.80
2018-02-03T19:55:42.996Z,25.77
2018-02-03T19:58:11.248Z,23.90
2018-02-03T20:00:39.548Z,25.20
2018-02-03T20:03:07.827Z,32.77
2018-02-03T20:05:35.329Z,68.13
2018-02-03T20:08:02.853Z,28.30
2018-02-03T20:10:30.354Z,22.60
2018-02-03T20:12:57.826Z,21.77
2018-02-03T20:15:25.362Z,28.83
2018-02-03T20:17:53.662Z,35.03
2018-02-03T20:20:21.189Z,34.40
2018-02-03T20:22:48.674Z,30.33
2018-02-03T20:25:16.179Z,25.10
2018-02-03T20:27:43.670Z,24.30
2018-02-03T20:30:11.155Z,28.00
2018-02-03T20:32:38.629Z,24.80
2018-02-03T20:35:06.891Z,42.17
2018-02-03T20:37:34.387Z,23.50
2018-02-03T20:40:01.925Z,25.10
2018-02-03T20:42:29.436Z,31.93
2018-02-03T20:44:56.943Z,21.90
2018-02-03T20:47:25.209Z,23.37
2018-02-03T20:49:52.730Z,25.47
2018-02-03T20:52:20.241Z,26.43
2018-02-03T20:54:48.591Z,28.10
2018-02-03T20:57:16.175Z,30.17
2018-02-03T20:59:43.744Z,30.30
2018-02-03T21:02:11.324Z,27.20
2018-02-03T21:04:42.264Z,24.73
2018-02-03T21:07:09.933Z,25.67
2018-02-03T21:09:37.559Z,25.80
2018-02-03T21:12:05.316Z,29.97
2018-02-03T21:14:33.007Z,27.40
2018-02-03T21:17:00.605Z,27.20
2018-02-03T21:19:28.269Z,26.90
2018-02-03T21:21:56.791Z,33.17
2018-02-03T21:24:24.630Z,31.33
2018-02-03T21:26:55.150Z,31.70
2018-02-03T21:29:22.903Z,28.10
2018-02-03T21:31:51.120Z,32.77
2018-02-03T21:34:22.022Z,32.63
2018-02-03T21:36:50.410Z,26.63
2018-02-03T21:39:18.022Z,27.60
2018-02-03T21:41:46.565Z,30.27
2018-02-03T21:44:14.094Z,26.10
2018-02-03T21:46:41.565Z,25.53
2018-02-03T21:49:09.058Z,31.67
2018-02-03T21:51:36.602Z,30.40
2018-02-03T21:54:04.080Z,32.10
2018-02-03T21:56:31.599Z,39.07
2018-02-03T21:58:59.116Z,33.90
2018-02-03T22:01:26.604Z,38.70
2018-02-03T22:03:54.110Z,29.47
2018-02-03T22:06:21.627Z,38.47
2018-02-03T22:08:49.090Z,38.30
2018-02-03T22:11:17.367Z,31.33
2018-02-03T22:13:45.634Z,30.20
2018-02-03T22:16:13.107Z,39.13
2018-02-03T22:18:41.398Z,30.33
2018-02-03T22:21:08.875Z,34.37
2018-02-03T22:23:36.366Z,29.77
2018-02-03T22:26:03.866Z,30.20
2018-02-03T22:28:31.325Z,34.90
2018-02-03T22:30:58.813Z,36.67
2018-02-03T22:33:26.320Z,33.07
2018-02-03T22:35:53.831Z,31.37
2018-02-03T22:38:21.322Z,36.87
2018-02-03T22:40:48.850Z,28.63
2018-02-03T22:43:16.326Z,35.93
2018-02-03T22:45:43.797Z,38.00
2018-02-03T22:48:11.286Z,35.30
2018-02-03T22:50:38.770Z,35.63
2018-02-03T22:53:06.259Z,42.10
2018-02-03T22:55:33.781Z,35.63
2018-02-03T22:58:01.275Z,32.13
2018-02-03T23:00:29.120Z,44.07
2018-02-03T23:02:58.487Z,32.30
2018-02-03T23:05:27.111Z,36.10
2018-02-03T23:07:54.581Z,35.87
2018-02-03T23:10:22.155Z,32.13
2018-02-03T23:12:49.613Z,33.77
2018-02-03T23:15:21.327Z,34.00
2018-02-03T23:17:49.094Z,39.57
2018-02-03T23:20:16.569Z,34.97
2018-02-03T23:22:44.110Z,32.93
2018-02-03T23:25:11.879Z,38.83
2018-02-03T23:27:44.192Z,45.07
2018-02-03T23:30:15.778Z,37.90
2018-02-03T23:32:43.293Z,35.13
2018-02-03T23:35:10.802Z,35.73
2018-02-03T23:37:38.290Z,31.13
2018-02-03T23:40:05.801Z,47.00
2018-02-03T23:42:33.324Z,39.60
2018-02-03T23:45:00.823Z,39.33
2018-02-03T23:47:28.357Z,43.90
2018-02-03T23:49:56.645Z,42.00
2018-02-03T23:52:24.142Z,44.93
2018-02-03T23:54:51.671Z,43.90
2018-02-03T23:57:21.548Z,48.47
2018-02-03T23:59:49.107Z,46.20
